LFLC/CFE METAR and TAF weather

Enter ICAO airport designator
Station Type Date Time Source
LFLC METAR 2019/02/22 23:00 UTC NOAA

LFLC 222300Z AUTO 10001KT CAVOK 08/04 Q1031 NOSIG


Station Type Date Time Source
LFLC Decoded METAR 2019/02/22 23:00 UTC NOAA

Clermont-Ferrand, France (LFLC) 45-47N 003-10E 330M
Feb 22, 2019 - 06:00 PM EST / 2019.02.22 2300 UTC
Wind: from the E (100 degrees) at 1 MPH (1 KT):0
Visibility: greater than 7 mile(s):0
Temperature: 46 F (8 C)
Dew Point: 39 F (4 C)
Relative Humidity: 75%
Pressure (altimeter): 30.45 in. Hg (1031 hPa)
ob: LFLC 222300Z AUTO 10001KT CAVOK 08/04 Q1031 NOSIG
cycle: 23

Station Type Date Time Source
LFLC TAF 2019/02/22 21:21 UTC NOAA

TAF TAF LFLC 222000Z 2221/2321 34004KT CAVOK
BECMG 2304/2307 1500 BR BKN003 PROB40
TEMPO 2306/2309 0500 FG VV///
BECMG 2309/2312 6000 NSW SCT005
BECMG 2312/2314 CAVOK


Example: see airport list